sensor_id;sensor_type;location;lat;lon;timestamp;temperature;humidity
8643;DHT22;4359;49.358;11.256;2023-08-06T00:00:08;14.30;99.90
8643;DHT22;4359;49.358;11.256;2023-08-06T00:02:34;14.20;99.90
8643;DHT22;4359;49.358;11.256;2023-08-06T00:05:00;14.10;99.90
8643;DHT22;4359;49.358;11.256;2023-08-06T00:07:26;14.10;99.90
8643;DHT22;4359;49.358;11.256;2023-08-06T00:09:52;14.10;99.90
8643;DHT22;4359;49.358;11.256;2023-08-06T00:12:18;14.00;99.90
8643;DHT22;4359;49.358;11.256;2023-08-06T00:14:43;14.10;99.90
8643;DHT22;4359;49.358;11.256;2023-08-06T00:17:09;14.00;99.90
8643;DHT22;4359;49.358;11.256;2023-08-06T00:19:35;14.00;99.90
8643;DHT22;4359;49.358;11.256;2023-08-06T00:22:01;14.00;99.90
8643;DHT22;4359;49.358;11.256;2023-08-06T00:24:27;14.00;99.90
8643;DHT22;4359;49.358;11.256;2023-08-06T00:26:53;14.00;99.90
8643;DHT22;4359;49.358;11.256;2023-08-06T00:29:19;14.00;99.90
8643;DHT22;4359;49.358;11.256;2023-08-06T00:31:44;13.90;99.90
8643;DHT22;4359;49.358;11.256;2023-08-06T00:34:10;13.90;99.90
8643;DHT22;4359;49.358;11.256;2023-08-06T00:36:36;13.90;99.90
8643;DHT22;4359;49.358;11.256;2023-08-06T00:39:01;13.90;99.90
8643;DHT22;4359;49.358;11.256;2023-08-06T00:41:27;13.90;99.90
8643;DHT22;4359;49.358;11.256;2023-08-06T00:43:53;13.80;99.90
8643;DHT22;4359;49.358;11.256;2023-08-06T00:46:19;13.90;99.90
8643;DHT22;4359;49.358;11.256;2023-08-06T00:48:44;13.80;99.90
8643;DHT22;4359;49.358;11.256;2023-08-06T00:51:10;13.80;99.90
8643;DHT22;4359;49.358;11.256;2023-08-06T00:53:38;13.80;99.90
8643;DHT22;4359;49.358;11.256;2023-08-06T00:56:05;13.80;99.90
8643;DHT22;4359;49.358;11.256;2023-08-06T00:58:31;13.80;99.90
8643;DHT22;4359;49.358;11.256;2023-08-06T01:00:57;13.80;99.90
8643;DHT22;4359;49.358;11.256;2023-08-06T01:03:23;13.80;99.90
8643;DHT22;4359;49.358;11.256;2023-08-06T01:05:49;13.80;99.90
8643;DHT22;4359;49.358;11.256;2023-08-06T01:08:41;13.80;99.90
8643;DHT22;4359;49.358;11.256;2023-08-06T01:13:43;13.80;99.90
8643;DHT22;4359;49.358;11.256;2023-08-06T01:16:15;13.80;99.90
8643;DHT22;4359;49.358;11.256;2023-08-06T01:18:42;13.80;99.90
8643;DHT22;4359;49.358;11.256;2023-08-06T01:21:12;13.70;99.90
8643;DHT22;4359;49.358;11.256;2023-08-06T01:23:38;13.70;99.90
8643;DHT22;4359;49.358;11.256;2023-08-06T01:26:29;13.70;99.90
8643;DHT22;4359;49.358;11.256;2023-08-06T01:29:23;13.70;99.90
8643;DHT22;4359;49.358;11.256;2023-08-06T01:31:51;13.70;99.90
8643;DHT22;4359;49.358;11.256;2023-08-06T01:34:21;13.70;99.90
8643;DHT22;4359;49.358;11.256;2023-08-06T01:36:47;13.70;99.90
8643;DHT22;4359;49.358;11.256;2023-08-06T01:39:13;13.70;99.90
8643;DHT22;4359;49.358;11.256;2023-08-06T01:41:39;13.70;99.90
8643;DHT22;4359;49.358;11.256;2023-08-06T01:44:05;13.70;99.90
8643;DHT22;4359;49.358;11.256;2023-08-06T01:46:30;13.80;99.90
8643;DHT22;4359;49.358;11.256;2023-08-06T01:48:56;13.90;99.90
8643;DHT22;4359;49.358;11.256;2023-08-06T01:51:21;13.80;99.90
8643;DHT22;4359;49.358;11.256;2023-08-06T01:53:47;13.80;99.90
8643;DHT22;4359;49.358;11.256;2023-08-06T01:56:13;13.80;99.90
8643;DHT22;4359;49.358;11.256;2023-08-06T01:58:38;13.90;99.90
8643;DHT22;4359;49.358;11.256;2023-08-06T02:01:04;13.80;99.90
8643;DHT22;4359;49.358;11.256;2023-08-06T02:03:29;13.70;99.90
8643;DHT22;4359;49.358;11.256;2023-08-06T02:05:55;13.70;99.90
8643;DHT22;4359;49.358;11.256;2023-08-06T02:08:21;13.70;99.90
8643;DHT22;4359;49.358;11.256;2023-08-06T02:10:46;13.70;99.90
8643;DHT22;4359;49.358;11.256;2023-08-06T02:13:12;13.60;99.90
8643;DHT22;4359;49.358;11.256;2023-08-06T02:15:47;13.60;99.90
8643;DHT22;4359;49.358;11.256;2023-08-06T02:18:13;13.70;99.90
8643;DHT22;4359;49.358;11.256;2023-08-06T02:20:40;13.60;99.90
8643;DHT22;4359;49.358;11.256;2023-08-06T02:23:06;13.60;99.90
8643;DHT22;4359;49.358;11.256;2023-08-06T02:25:32;13.50;99.90
8643;DHT22;4359;49.358;11.256;2023-08-06T02:27:57;13.50;99.90
8643;DHT22;4359;49.358;11.256;2023-08-06T02:30:23;13.50;99.90
8643;DHT22;4359;49.358;11.256;2023-08-06T02:32:48;13.50;99.90
8643;DHT22;4359;49.358;11.256;2023-08-06T02:35:14;13.50;99.90
8643;DHT22;4359;49.358;11.256;2023-08-06T02:37:40;13.50;99.90
8643;DHT22;4359;49.358;11.256;2023-08-06T02:40:06;13.50;99.90
8643;DHT22;4359;49.358;11.256;2023-08-06T02:42:31;13.50;99.90
8643;DHT22;4359;49.358;11.256;2023-08-06T02:44:57;13.40;99.90
8643;DHT22;4359;49.358;11.256;2023-08-06T02:47:23;13.40;99.90
8643;DHT22;4359;49.358;11.256;2023-08-06T02:49:49;13.50;99.90
8643;DHT22;4359;49.358;11.256;2023-08-06T02:52:15;13.50;99.90
8643;DHT22;4359;49.358;11.256;2023-08-06T02:54:40;13.40;99.90
8643;DHT22;4359;49.358;11.256;2023-08-06T02:57:06;13.40;99.90
8643;DHT22;4359;49.358;11.256;2023-08-06T02:59:32;13.40;99.90
8643;DHT22;4359;49.358;11.256;2023-08-06T03:01:58;13.40;99.90
8643;DHT22;4359;49.358;11.256;2023-08-06T03:04:23;13.40;99.90
8643;DHT22;4359;49.358;11.256;2023-08-06T03:06:50;13.40;99.90
8643;DHT22;4359;49.358;11.256;2023-08-06T03:09:16;13.40;99.90
8643;DHT22;4359;49.358;11.256;2023-08-06T03:11:42;13.40;99.90
8643;DHT22;4359;49.358;11.256;2023-08-06T03:14:08;13.40;99.90
8643;DHT22;4359;49.358;11.256;2023-08-06T03:16:33;13.40;99.90
8643;DHT22;4359;49.358;11.256;2023-08-06T03:18:59;13.40;99.90
8643;DHT22;4359;49.358;11.256;2023-08-06T03:21:25;13.40;99.90
8643;DHT22;4359;49.358;11.256;2023-08-06T03:23:50;13.30;99.90
8643;DHT22;4359;49.358;11.256;2023-08-06T03:26:16;13.30;99.90
8643;DHT22;4359;49.358;11.256;2023-08-06T03:28:42;13.30;99.90
8643;DHT22;4359;49.358;11.256;2023-08-06T03:31:07;13.40;99.90
8643;DHT22;4359;49.358;11.256;2023-08-06T03:33:33;13.30;99.90
8643;DHT22;4359;49.358;11.256;2023-08-06T03:35:59;13.30;99.90
8643;DHT22;4359;49.358;11.256;2023-08-06T03:38:24;13.20;99.90
8643;DHT22;4359;49.358;11.256;2023-08-06T03:40:50;13.20;99.90
8643;DHT22;4359;49.358;11.256;2023-08-06T03:43:16;13.10;99.90
8643;DHT22;4359;49.358;11.256;2023-08-06T03:45:42;13.10;99.90
8643;DHT22;4359;49.358;11.256;2023-08-06T03:48:08;13.00;99.90
8643;DHT22;4359;49.358;11.256;2023-08-06T03:50:34;12.90;99.90
8643;DHT22;4359;49.358;11.256;2023-08-06T03:53:00;12.80;99.90
8643;DHT22;4359;49.358;11.256;2023-08-06T03:55:25;12.80;99.90
8643;DHT22;4359;49.358;11.256;2023-08-06T03:57:51;12.80;99.90
8643;DHT22;4359;49.358;11.256;2023-08-06T04:00:17;12.70;99.90
8643;DHT22;4359;49.358;11.256;2023-08-06T04:02:43;12.60;99.90
8643;DHT22;4359;49.358;11.256;2023-08-06T04:05:09;12.60;99.90
8643;DHT22;4359;49.358;11.256;2023-08-06T04:07:35;12.60;99.90
8643;DHT22;4359;49.358;11.256;2023-08-06T04:10:04;12.50;99.90
8643;DHT22;4359;49.358;11.256;2023-08-06T04:12:30;12.50;99.90
8643;DHT22;4359;49.358;11.256;2023-08-06T04:14:58;12.50;99.90
8643;DHT22;4359;49.358;11.256;2023-08-06T04:17:24;12.60;99.90
8643;DHT22;4359;49.358;11.256;2023-08-06T04:19:52;12.70;99.90
8643;DHT22;4359;49.358;11.256;2023-08-06T04:22:18;12.70;99.90
8643;DHT22;4359;49.358;11.256;2023-08-06T04:24:44;12.70;99.90
8643;DHT22;4359;49.358;11.256;2023-08-06T04:27:10;12.70;99.90
8643;DHT22;4359;49.358;11.256;2023-08-06T04:29:37;12.60;99.90
8643;DHT22;4359;49.358;11.256;2023-08-06T04:32:05;12.60;99.90
8643;DHT22;4359;49.358;11.256;2023-08-06T04:34:30;12.60;99.90
8643;DHT22;4359;49.358;11.256;2023-08-06T04:36:56;12.50;99.90
8643;DHT22;4359;49.358;11.256;2023-08-06T04:39:22;12.50;99.90
8643;DHT22;4359;49.358;11.256;2023-08-06T04:41:47;12.50;99.90
8643;DHT22;4359;49.358;11.256;2023-08-06T04:44:13;12.40;99.90
8643;DHT22;4359;49.358;11.256;2023-08-06T04:46:38;12.40;99.90
8643;DHT22;4359;49.358;11.256;2023-08-06T04:49:04;12.40;99.90
8643;DHT22;4359;49.358;11.256;2023-08-06T04:51:30;12.40;99.90
8643;DHT22;4359;49.358;11.256;2023-08-06T04:53:57;12.50;99.90
8643;DHT22;4359;49.358;11.256;2023-08-06T04:56:22;12.60;99.90
8643;DHT22;4359;49.358;11.256;2023-08-06T04:58:48;12.60;99.90
8643;DHT22;4359;49.358;11.256;2023-08-06T05:01:14;12.70;99.90
8643;DHT22;4359;49.358;11.256;2023-08-06T05:03:40;12.60;99.90
8643;DHT22;4359;49.358;11.256;2023-08-06T05:06:05;12.70;99.90
8643;DHT22;4359;49.358;11.256;2023-08-06T05:08:31;12.80;99.90
8643;DHT22;4359;49.358;11.256;2023-08-06T05:10:56;12.90;99.90
8643;DHT22;4359;49.358;11.256;2023-08-06T05:13:22;12.90;99.90
8643;DHT22;4359;49.358;11.256;2023-08-06T05:15:48;13.00;99.90
8643;DHT22;4359;49.358;11.256;2023-08-06T05:18:13;13.20;99.90
8643;DHT22;4359;49.358;11.256;2023-08-06T05:20:41;13.30;99.90
8643;DHT22;4359;49.358;11.256;2023-08-06T05:23:07;13.40;99.90
8643;DHT22;4359;49.358;11.256;2023-08-06T05:25:34;13.50;99.90
8643;DHT22;4359;49.358;11.256;2023-08-06T05:28:01;13.60;99.90
8643;DHT22;4359;49.358;11.256;2023-08-06T05:30:27;13.70;99.90
8643;DHT22;4359;49.358;11.256;2023-08-06T05:32:53;13.80;99.90
8643;DHT22;4359;49.358;11.256;2023-08-06T05:35:18;13.90;99.90
8643;DHT22;4359;49.358;11.256;2023-08-06T05:37:44;13.90;99.90
8643;DHT22;4359;49.358;11.256;2023-08-06T05:40:10;13.70;99.90
8643;DHT22;4359;49.358;11.256;2023-08-06T05:42:35;13.70;99.90
8643;DHT22;4359;49.358;11.256;2023-08-06T05:45:01;13.80;99.90
8643;DHT22;4359;49.358;11.256;2023-08-06T05:47:26;13.90;99.90
8643;DHT22;4359;49.358;11.256;2023-08-06T05:49:52;14.00;99.90
8643;DHT22;4359;49.358;11.256;2023-08-06T05:52:18;14.10;99.90
8643;DHT22;4359;49.358;11.256;2023-08-06T05:54:43;14.20;99.90
8643;DHT22;4359;49.358;11.256;2023-08-06T05:57:09;14.30;99.90
8643;DHT22;4359;49.358;11.256;2023-08-06T05:59:35;14.50;99.90
8643;DHT22;4359;49.358;11.256;2023-08-06T06:02:00;14.60;99.90
8643;DHT22;4359;49.358;11.256;2023-08-06T06:04:26;14.60;99.90
8643;DHT22;4359;49.358;11.256;2023-08-06T06:06:52;14.60;99.90
8643;DHT22;4359;49.358;11.256;2023-08-06T06:09:17;14.60;99.90
8643;DHT22;4359;49.358;11.256;2023-08-06T06:11:43;14.60;99.90
8643;DHT22;4359;49.358;11.256;2023-08-06T06:14:09;14.50;99.90
8643;DHT22;4359;49.358;11.256;2023-08-06T06:16:34;14.70;99.90
8643;DHT22;4359;49.358;11.256;2023-08-06T06:19:00;14.70;99.90
8643;DHT22;4359;49.358;11.256;2023-08-06T06:21:25;14.90;99.90
8643;DHT22;4359;49.358;11.256;2023-08-06T06:23:51;14.90;99.90
8643;DHT22;4359;49.358;11.256;2023-08-06T06:26:20;15.10;99.90
8643;DHT22;4359;49.358;11.256;2023-08-06T06:28:45;15.40;99.90
8643;DHT22;4359;49.358;11.256;2023-08-06T06:31:11;15.90;99.90
8643;DHT22;4359;49.358;11.256;2023-08-06T06:33:37;16.40;99.90
8643;DHT22;4359;49.358;11.256;2023-08-06T06:36:03;16.60;99.90
8643;DHT22;4359;49.358;11.256;2023-08-06T06:38:29;16.60;99.90
8643;DHT22;4359;49.358;11.256;2023-08-06T06:40:55;16.60;99.90
8643;DHT22;4359;49.358;11.256;2023-08-06T06:43:22;16.40;99.90
8643;DHT22;4359;49.358;11.256;2023-08-06T06:45:58;16.40;99.90
8643;DHT22;4359;49.358;11.256;2023-08-06T06:48:26;16.30;99.90
8643;DHT22;4359;49.358;11.256;2023-08-06T06:50:52;16.30;99.90
8643;DHT22;4359;49.358;11.256;2023-08-06T06:53:20;16.20;99.90
8643;DHT22;4359;49.358;11.256;2023-08-06T06:55:48;15.90;99.90
8643;DHT22;4359;49.358;11.256;2023-08-06T06:58:15;15.40;99.90
8643;DHT22;4359;49.358;11.256;2023-08-06T07:00:41;15.20;99.90
8643;DHT22;4359;49.358;11.256;2023-08-06T07:03:07;15.00;99.90
8643;DHT22;4359;49.358;11.256;2023-08-06T07:05:33;14.70;99.90
8643;DHT22;4359;49.358;11.256;2023-08-06T07:07:59;14.60;99.90
8643;DHT22;4359;49.358;11.256;2023-08-06T07:10:25;14.70;99.90
8643;DHT22;4359;49.358;11.256;2023-08-06T07:12:51;15.00;99.90
8643;DHT22;4359;49.358;11.256;2023-08-06T07:15:16;15.20;99.90
8643;DHT22;4359;49.358;11.256;2023-08-06T07:17:43;15.30;99.90
8643;DHT22;4359;49.358;11.256;2023-08-06T07:20:09;15.40;99.90
8643;DHT22;4359;49.358;11.256;2023-08-06T07:22:34;15.60;99.90
8643;DHT22;4359;49.358;11.256;2023-08-06T07:25:01;15.80;99.90
8643;DHT22;4359;49.358;11.256;2023-08-06T07:27:26;16.00;99.90
8643;DHT22;4359;49.358;11.256;2023-08-06T07:29:52;16.00;99.90
8643;DHT22;4359;49.358;11.256;2023-08-06T07:32:18;16.20;99.90
8643;DHT22;4359;49.358;11.256;2023-08-06T07:34:43;16.30;99.90
8643;DHT22;4359;49.358;11.256;2023-08-06T07:37:09;16.50;99.90
8643;DHT22;4359;49.358;11.256;2023-08-06T07:39:35;16.60;99.90
8643;DHT22;4359;49.358;11.256;2023-08-06T07:42:03;16.80;99.90
8643;DHT22;4359;49.358;11.256;2023-08-06T07:44:31;16.70;99.90
8643;DHT22;4359;49.358;11.256;2023-08-06T07:46:56;16.90;99.90
8643;DHT22;4359;49.358;11.256;2023-08-06T07:49:22;17.00;99.90
8643;DHT22;4359;49.358;11.256;2023-08-06T07:51:48;17.20;99.90
8643;DHT22;4359;49.358;11.256;2023-08-06T07:54:13;17.10;99.90
8643;DHT22;4359;49.358;11.256;2023-08-06T07:56:39;17.00;99.90
8643;DHT22;4359;49.358;11.256;2023-08-06T07:59:05;16.80;99.90
8643;DHT22;4359;49.358;11.256;2023-08-06T08:01:31;16.60;99.90
8643;DHT22;4359;49.358;11.256;2023-08-06T08:03:56;16.50;99.90
8643;DHT22;4359;49.358;11.256;2023-08-06T08:06:22;16.50;99.90
8643;DHT22;4359;49.358;11.256;2023-08-06T08:08:48;16.50;99.90
8643;DHT22;4359;49.358;11.256;2023-08-06T08:11:14;16.40;99.90
8643;DHT22;4359;49.358;11.256;2023-08-06T08:13:41;16.40;99.90
8643;DHT22;4359;49.358;11.256;2023-08-06T08:16:07;16.20;99.90
8643;DHT22;4359;49.358;11.256;2023-08-06T08:18:33;16.20;99.90
8643;DHT22;4359;49.358;11.256;2023-08-06T08:20:58;16.10;99.90
8643;DHT22;4359;49.358;11.256;2023-08-06T08:23:24;16.00;99.90
8643;DHT22;4359;49.358;11.256;2023-08-06T08:25:50;15.90;99.90
8643;DHT22;4359;49.358;11.256;2023-08-06T08:28:17;15.70;99.90
8643;DHT22;4359;49.358;11.256;2023-08-06T08:30:42;15.60;99.90
8643;DHT22;4359;49.358;11.256;2023-08-06T08:33:08;15.60;99.90
8643;DHT22;4359;49.358;11.256;2023-08-06T08:35:35;15.60;99.90
8643;DHT22;4359;49.358;11.256;2023-08-06T08:38:01;15.80;99.90
8643;DHT22;4359;49.358;11.256;2023-08-06T08:40:31;16.30;99.90
8643;DHT22;4359;49.358;11.256;2023-08-06T08:42:58;16.90;99.90
8643;DHT22;4359;49.358;11.256;2023-08-06T08:45:27;17.30;99.90
8643;DHT22;4359;49.358;11.256;2023-08-06T08:47:54;17.10;99.90
8643;DHT22;4359;49.358;11.256;2023-08-06T08:50:21;16.70;99.90
8643;DHT22;4359;49.358;11.256;2023-08-06T08:52:47;16.00;99.90
8643;DHT22;4359;49.358;11.256;2023-08-06T08:55:15;16.00;99.90
8643;DHT22;4359;49.358;11.256;2023-08-06T08:57:40;16.10;99.90
8643;DHT22;4359;49.358;11.256;2023-08-06T09:00:07;16.10;99.90
8643;DHT22;4359;49.358;11.256;2023-08-06T09:02:33;16.20;99.90
8643;DHT22;4359;49.358;11.256;2023-08-06T09:05:00;16.50;99.90
8643;DHT22;4359;49.358;11.256;2023-08-06T09:07:33;16.70;99.90
8643;DHT22;4359;49.358;11.256;2023-08-06T09:10:02;16.80;99.90
8643;DHT22;4359;49.358;11.256;2023-08-06T09:12:31;17.10;99.90
8643;DHT22;4359;49.358;11.256;2023-08-06T09:14:57;17.10;99.90
8643;DHT22;4359;49.358;11.256;2023-08-06T09:17:23;17.20;99.90
8643;DHT22;4359;49.358;11.256;2023-08-06T09:19:48;17.00;99.90
8643;DHT22;4359;49.358;11.256;2023-08-06T09:22:15;17.20;99.90
8643;DHT22;4359;49.358;11.256;2023-08-06T09:24:41;17.90;99.90
8643;DHT22;4359;49.358;11.256;2023-08-06T09:27:11;18.70;99.90
8643;DHT22;4359;49.358;11.256;2023-08-06T09:29:40;18.90;99.90
8643;DHT22;4359;49.358;11.256;2023-08-06T09:32:07;19.10;99.90
8643;DHT22;4359;49.358;11.256;2023-08-06T09:34:33;18.50;99.90
8643;DHT22;4359;49.358;11.256;2023-08-06T09:36:58;17.80;99.90
8643;DHT22;4359;49.358;11.256;2023-08-06T09:39:28;17.80;99.90
8643;DHT22;4359;49.358;11.256;2023-08-06T09:41:58;18.10;99.90
8643;DHT22;4359;49.358;11.256;2023-08-06T09:44:25;18.40;99.90
8643;DHT22;4359;49.358;11.256;2023-08-06T09:46:52;18.70;99.90
8643;DHT22;4359;49.358;11.256;2023-08-06T09:49:20;18.90;99.90
8643;DHT22;4359;49.358;11.256;2023-08-06T09:51:46;18.50;99.90
8643;DHT22;4359;49.358;11.256;2023-08-06T09:54:16;18.40;99.90
8643;DHT22;4359;49.358;11.256;2023-08-06T09:56:43;17.60;99.90
8643;DHT22;4359;49.358;11.256;2023-08-06T09:59:09;17.10;99.90
8643;DHT22;4359;49.358;11.256;2023-08-06T10:01:37;16.90;99.90
8643;DHT22;4359;49.358;11.256;2023-08-06T10:04:04;16.90;99.90
8643;DHT22;4359;49.358;11.256;2023-08-06T10:06:34;17.20;99.90
8643;DHT22;4359;49.358;11.256;2023-08-06T10:09:01;17.70;99.90
8643;DHT22;4359;49.358;11.256;2023-08-06T10:11:28;18.30;99.90
8643;DHT22;4359;49.358;11.256;2023-08-06T10:14:08;18.80;99.90
8643;DHT22;4359;49.358;11.256;2023-08-06T10:16:36;19.20;99.90
8643;DHT22;4359;49.358;11.256;2023-08-06T10:19:04;19.50;99.90
8643;DHT22;4359;49.358;11.256;2023-08-06T10:21:31;19.00;99.90
8643;DHT22;4359;49.358;11.256;2023-08-06T10:23:57;18.50;99.90
8643;DHT22;4359;49.358;11.256;2023-08-06T10:26:30;18.10;99.90
8643;DHT22;4359;49.358;11.256;2023-08-06T10:28:55;17.60;99.90
8643;DHT22;4359;49.358;11.256;2023-08-06T10:34:23;17.70;99.90
8643;DHT22;4359;49.358;11.256;2023-08-06T10:36:48;17.40;99.90
8643;DHT22;4359;49.358;11.256;2023-08-06T10:39:14;17.20;99.90
8643;DHT22;4359;49.358;11.256;2023-08-06T10:41:42;16.90;99.90
8643;DHT22;4359;49.358;11.256;2023-08-06T10:44:10;16.50;99.90
8643;DHT22;4359;49.358;11.256;2023-08-06T10:46:36;16.40;99.90
8643;DHT22;4359;49.358;11.256;2023-08-06T10:49:03;16.30;99.90
8643;DHT22;4359;49.358;11.256;2023-08-06T10:51:28;16.20;99.90
8643;DHT22;4359;49.358;11.256;2023-08-06T10:53:54;16.20;99.90
8643;DHT22;4359;49.358;11.256;2023-08-06T10:56:22;16.40;99.90
8643;DHT22;4359;49.358;11.256;2023-08-06T10:58:49;16.80;99.90
8643;DHT22;4359;49.358;11.256;2023-08-06T11:01:15;17.00;99.90
8643;DHT22;4359;49.358;11.256;2023-08-06T11:03:42;17.60;99.90
8643;DHT22;4359;49.358;11.256;2023-08-06T11:06:09;17.90;99.90
8643;DHT22;4359;49.358;11.256;2023-08-06T11:08:38;17.90;99.90
8643;DHT22;4359;49.358;11.256;2023-08-06T11:11:14;17.90;99.90
8643;DHT22;4359;49.358;11.256;2023-08-06T11:13:44;17.70;99.90
8643;DHT22;4359;49.358;11.256;2023-08-06T11:16:12;17.60;99.90
8643;DHT22;4359;49.358;11.256;2023-08-06T11:18:40;17.50;99.90
8643;DHT22;4359;49.358;11.256;2023-08-06T11:21:06;17.70;99.90
8643;DHT22;4359;49.358;11.256;2023-08-06T11:23:31;17.30;99.90
8643;DHT22;4359;49.358;11.256;2023-08-06T11:25:57;16.80;99.90
8643;DHT22;4359;49.358;11.256;2023-08-06T11:28:23;16.30;99.90
8643;DHT22;4359;49.358;11.256;2023-08-06T11:30:53;16.00;99.90
8643;DHT22;4359;49.358;11.256;2023-08-06T11:33:23;15.60;99.90
8643;DHT22;4359;49.358;11.256;2023-08-06T11:35:51;15.80;99.90
8643;DHT22;4359;49.358;11.256;2023-08-06T11:38:17;16.20;99.90
8643;DHT22;4359;49.358;11.256;2023-08-06T11:40:44;16.70;99.90
8643;DHT22;4359;49.358;11.256;2023-08-06T11:43:14;17.00;99.90
8643;DHT22;4359;49.358;11.256;2023-08-06T11:45:40;17.40;99.90
8643;DHT22;4359;49.358;11.256;2023-08-06T11:48:07;18.30;99.90
8643;DHT22;4359;49.358;11.256;2023-08-06T11:50:37;19.00;99.90
8643;DHT22;4359;49.358;11.256;2023-08-06T11:53:06;19.20;99.90
8643;DHT22;4359;49.358;11.256;2023-08-06T11:55:32;18.90;99.90
8643;DHT22;4359;49.358;11.256;2023-08-06T11:57:58;18.80;99.90
8643;DHT22;4359;49.358;11.256;2023-08-06T12:00:25;19.20;99.90
8643;DHT22;4359;49.358;11.256;2023-08-06T12:02:52;19.60;99.90
8643;DHT22;4359;49.358;11.256;2023-08-06T12:05:19;19.50;99.90
8643;DHT22;4359;49.358;11.256;2023-08-06T12:07:52;18.60;99.90
8643;DHT22;4359;49.358;11.256;2023-08-06T12:10:19;18.50;99.90
8643;DHT22;4359;49.358;11.256;2023-08-06T12:12:46;18.40;99.90
8643;DHT22;4359;49.358;11.256;2023-08-06T12:15:11;18.00;99.90
8643;DHT22;4359;49.358;11.256;2023-08-06T12:17:37;17.90;99.90
8643;DHT22;4359;49.358;11.256;2023-08-06T12:20:04;18.30;99.90
8643;DHT22;4359;49.358;11.256;2023-08-06T12:22:31;18.20;99.90
8643;DHT22;4359;49.358;11.256;2023-08-06T12:25:08;17.90;99.90
8643;DHT22;4359;49.358;11.256;2023-08-06T12:27:37;17.70;99.90
8643;DHT22;4359;49.358;11.256;2023-08-06T12:30:04;17.80;99.90
8643;DHT22;4359;49.358;11.256;2023-08-06T12:32:30;17.90;99.90
8643;DHT22;4359;49.358;11.256;2023-08-06T12:34:56;18.10;99.90
8643;DHT22;4359;49.358;11.256;2023-08-06T12:37:21;18.60;99.90
8643;DHT22;4359;49.358;11.256;2023-08-06T12:39:48;18.80;99.90
8643;DHT22;4359;49.358;11.256;2023-08-06T12:42:14;18.40;99.90
8643;DHT22;4359;49.358;11.256;2023-08-06T12:44:39;18.10;99.90
8643;DHT22;4359;49.358;11.256;2023-08-06T12:47:06;18.10;99.90
8643;DHT22;4359;49.358;11.256;2023-08-06T12:49:32;18.40;99.90
8643;DHT22;4359;49.358;11.256;2023-08-06T12:51:58;18.30;99.90
8643;DHT22;4359;49.358;11.256;2023-08-06T12:54:25;18.20;99.90
8643;DHT22;4359;49.358;11.256;2023-08-06T12:56:51;18.10;99.90
8643;DHT22;4359;49.358;11.256;2023-08-06T12:59:17;17.90;99.90
8643;DHT22;4359;49.358;11.256;2023-08-06T13:01:44;17.80;99.90
8643;DHT22;4359;49.358;11.256;2023-08-06T13:04:11;17.40;99.90
8643;DHT22;4359;49.358;11.256;2023-08-06T13:06:38;17.60;99.90
8643;DHT22;4359;49.358;11.256;2023-08-06T13:09:09;17.60;99.90
8643;DHT22;4359;49.358;11.256;2023-08-06T13:11:35;17.50;99.90
8643;DHT22;4359;49.358;11.256;2023-08-06T13:14:09;17.70;99.90
8643;DHT22;4359;49.358;11.256;2023-08-06T13:16:36;17.70;99.90
8643;DHT22;4359;49.358;11.256;2023-08-06T13:19:03;17.60;99.90
8643;DHT22;4359;49.358;11.256;2023-08-06T13:21:57;17.50;99.90
8643;DHT22;4359;49.358;11.256;2023-08-06T13:24:21;17.40;99.90
8643;DHT22;4359;49.358;11.256;2023-08-06T13:26:47;17.40;99.90
8643;DHT22;4359;49.358;11.256;2023-08-06T13:29:12;17.30;99.90
8643;DHT22;4359;49.358;11.256;2023-08-06T13:31:38;17.20;99.90
8643;DHT22;4359;49.358;11.256;2023-08-06T13:34:04;17.10;99.90
8643;DHT22;4359;49.358;11.256;2023-08-06T13:36:30;17.00;99.90
8643;DHT22;4359;49.358;11.256;2023-08-06T13:38:56;17.10;99.90
8643;DHT22;4359;49.358;11.256;2023-08-06T13:41:22;16.90;99.90
8643;DHT22;4359;49.358;11.256;2023-08-06T13:43:48;17.00;99.90
8643;DHT22;4359;49.358;11.256;2023-08-06T13:46:14;16.80;99.90
8643;DHT22;4359;49.358;11.256;2023-08-06T13:48:43;16.30;99.90
8643;DHT22;4359;49.358;11.256;2023-08-06T13:51:10;16.10;99.90
8643;DHT22;4359;49.358;11.256;2023-08-06T13:53:36;16.00;99.90
8643;DHT22;4359;49.358;11.256;2023-08-06T13:56:02;16.00;99.90
8643;DHT22;4359;49.358;11.256;2023-08-06T13:58:28;15.90;99.90
8643;DHT22;4359;49.358;11.256;2023-08-06T14:00:54;15.60;99.90
8643;DHT22;4359;49.358;11.256;2023-08-06T14:03:20;15.50;99.90
8643;DHT22;4359;49.358;11.256;2023-08-06T14:05:46;15.60;99.90
8643;DHT22;4359;49.358;11.256;2023-08-06T14:08:11;15.70;99.90
8643;DHT22;4359;49.358;11.256;2023-08-06T14:10:37;15.80;99.90
8643;DHT22;4359;49.358;11.256;2023-08-06T14:13:03;15.70;99.90
8643;DHT22;4359;49.358;11.256;2023-08-06T14:15:28;15.80;99.90
8643;DHT22;4359;49.358;11.256;2023-08-06T14:17:54;15.80;99.90
8643;DHT22;4359;49.358;11.256;2023-08-06T14:20:20;15.80;99.90
8643;DHT22;4359;49.358;11.256;2023-08-06T14:22:45;15.60;99.90
8643;DHT22;4359;49.358;11.256;2023-08-06T14:25:11;15.60;99.90
8643;DHT22;4359;49.358;11.256;2023-08-06T14:27:37;15.50;99.90
8643;DHT22;4359;49.358;11.256;2023-08-06T14:30:05;15.60;99.90
8643;DHT22;4359;49.358;11.256;2023-08-06T14:32:32;15.60;99.90
8643;DHT22;4359;49.358;11.256;2023-08-06T14:34:57;15.60;99.90
8643;DHT22;4359;49.358;11.256;2023-08-06T14:37:24;15.20;99.90
8643;DHT22;4359;49.358;11.256;2023-08-06T14:39:50;14.90;99.90
8643;DHT22;4359;49.358;11.256;2023-08-06T14:42:16;14.70;99.90
8643;DHT22;4359;49.358;11.256;2023-08-06T14:44:41;14.50;99.90
8643;DHT22;4359;49.358;11.256;2023-08-06T14:47:07;14.30;99.90
8643;DHT22;4359;49.358;11.256;2023-08-06T14:49:33;14.10;99.90
8643;DHT22;4359;49.358;11.256;2023-08-06T14:51:58;14.00;99.90
8643;DHT22;4359;49.358;11.256;2023-08-06T14:54:25;14.10;99.90
8643;DHT22;4359;49.358;11.256;2023-08-06T14:56:52;14.20;99.90
8643;DHT22;4359;49.358;11.256;2023-08-06T14:59:18;14.20;99.90
8643;DHT22;4359;49.358;11.256;2023-08-06T15:01:44;14.30;99.90
8643;DHT22;4359;49.358;11.256;2023-08-06T15:04:09;14.30;99.90
8643;DHT22;4359;49.358;11.256;2023-08-06T15:06:35;14.30;99.90
8643;DHT22;4359;49.358;11.256;2023-08-06T15:09:00;14.30;99.90
8643;DHT22;4359;49.358;11.256;2023-08-06T15:11:27;14.40;99.90
8643;DHT22;4359;49.358;11.256;2023-08-06T15:13:52;14.60;99.90
8643;DHT22;4359;49.358;11.256;2023-08-06T15:16:18;14.60;99.90
8643;DHT22;4359;49.358;11.256;2023-08-06T15:18:44;14.60;99.90
8643;DHT22;4359;49.358;11.256;2023-08-06T15:21:10;14.70;99.90
8643;DHT22;4359;49.358;11.256;2023-08-06T15:23:36;14.70;99.90
8643;DHT22;4359;49.358;11.256;2023-08-06T15:26:04;14.70;99.90
8643;DHT22;4359;49.358;11.256;2023-08-06T15:28:30;14.80;99.90
8643;DHT22;4359;49.358;11.256;2023-08-06T15:30:55;14.90;99.90
8643;DHT22;4359;49.358;11.256;2023-08-06T15:33:21;14.80;99.90
8643;DHT22;4359;49.358;11.256;2023-08-06T15:35:47;14.80;99.90
8643;DHT22;4359;49.358;11.256;2023-08-06T15:38:13;14.70;99.90
8643;DHT22;4359;49.358;11.256;2023-08-06T15:40:39;14.70;99.90
8643;DHT22;4359;49.358;11.256;2023-08-06T15:43:05;14.80;99.90
8643;DHT22;4359;49.358;11.256;2023-08-06T15:45:30;14.80;99.90